ENHK

Hasvik Airport

Hasvik, Norway
METAR ENHK 160950Z 10011KT 9999 -RA FEW019 BKN051 08/05 Q1009
Observed Flight Rules
Nov-16 @ 09:50 UTC (28 minutes ago) Visual Flight Rules
Wind Visibility Clouds Conditions
100° at 11 knots 10,000+ meters
  • Few at 1,900' AGL
  • Broken at 5,100' AGL
  • Light Rain
Temperatures Readings
Current 8°C / 46°F
Dewpoint 5°C / 41°F
Humidity 82%
Altimeter 29.79" Hg
Pressure 1009 hPa
Elevation 10
METAR ENHK 160950Z 10011KT 9999 -RA FEW019 BKN051 08/05 Q1009
Observed Flight Rules
Nov-16 @ 09:50 UTC
(28 minutes ago)
VFR
Wind Visibility
100° at 11 knots 10,000+ meters
Clouds
  • Few at 1,900' AGL
  • Broken at 5,100' AGL
Conditions
  • Light Rain
Temperature Dewpoint
8°C / 46°F 5°C / 41°F
Humidity Altimeter Pressure
82% 29.79" Hg 1009 hPa